createdAt,value
2022-09-28T00:00:12.741Z,0.00
2022-09-28T00:01:12.715Z,0.00
2022-09-28T00:02:12.846Z,0.00
2022-09-28T00:03:12.754Z,0.00
2022-09-28T00:04:12.712Z,0.00
2022-09-28T00:05:12.745Z,0.00
2022-09-28T00:06:12.675Z,0.00
2022-09-28T00:07:12.655Z,0.00
2022-09-28T00:08:12.675Z,0.00
2022-09-28T00:09:12.733Z,0.00
2022-09-28T00:10:12.626Z,0.00
2022-09-28T00:11:12.612Z,0.00
2022-09-28T00:12:12.607Z,0.00
2022-09-28T00:13:12.609Z,0.00
2022-09-28T00:14:12.616Z,0.00
2022-09-28T00:15:12.572Z,0.00
2022-09-28T00:16:12.594Z,0.00
2022-09-28T00:17:12.550Z,0.00
2022-09-28T00:18:12.549Z,0.00
2022-09-28T00:19:12.572Z,0.00
2022-09-28T00:20:12.522Z,0.00
2022-09-28T00:21:12.530Z,0.00
2022-09-28T00:22:12.522Z,0.00
2022-09-28T00:23:12.489Z,0.00
2022-09-28T00:24:12.528Z,0.00
2022-09-28T00:25:12.482Z,0.00
2022-09-28T00:26:12.490Z,0.00
2022-09-28T00:27:12.455Z,0.00
2022-09-28T00:28:12.445Z,0.00
2022-09-28T00:29:12.451Z,0.00
2022-09-28T00:30:12.424Z,0.00
2022-09-28T00:31:12.440Z,0.00
2022-09-28T00:32:12.403Z,0.00
2022-09-28T00:33:12.457Z,0.00
2022-09-28T00:34:12.392Z,0.00
2022-09-28T00:35:12.367Z,0.00
2022-09-28T00:36:12.361Z,0.00
2022-09-28T00:37:12.370Z,0.00
2022-09-28T00:38:12.341Z,0.00
2022-09-28T00:39:12.337Z,0.00
2022-09-28T00:40:12.318Z,0.00
2022-09-28T00:41:12.306Z,0.00
2022-09-28T00:42:12.294Z,0.00
2022-09-28T00:43:12.281Z,0.00
2022-09-28T00:44:12.285Z,0.00
2022-09-28T00:45:12.261Z,0.00
2022-09-28T00:46:12.336Z,0.00
2022-09-28T00:47:12.240Z,0.00
2022-09-28T00:48:12.228Z,0.00
2022-09-28T00:49:12.237Z,0.00
2022-09-28T00:50:12.211Z,0.00
2022-09-28T00:51:12.202Z,0.00
2022-09-28T00:52:12.189Z,0.00
2022-09-28T00:53:12.211Z,0.00
2022-09-28T00:54:12.185Z,0.00
2022-09-28T00:55:12.160Z,0.00
2022-09-28T00:56:12.146Z,0.00
2022-09-28T00:57:12.140Z,0.00
2022-09-28T00:58:12.125Z,0.00
2022-09-28T00:59:12.131Z,0.00
2022-09-28T01:00:12.105Z,0.00
2022-09-28T01:01:12.136Z,0.00
2022-09-28T01:02:12.176Z,0.00
2022-09-28T01:03:12.074Z,0.00
2022-09-28T01:04:12.078Z,0.00
2022-09-28T01:05:12.059Z,0.00
2022-09-28T01:06:12.044Z,0.00
2022-09-28T01:07:12.032Z,0.00
2022-09-28T01:08:12.029Z,0.00
2022-09-28T01:09:12.057Z,0.00
2022-09-28T01:10:12.006Z,0.00
2022-09-28T01:11:11.990Z,0.00
2022-09-28T01:12:11.986Z,0.00
2022-09-28T01:13:11.972Z,0.00
2022-09-28T01:14:11.981Z,0.00
2022-09-28T01:15:11.952Z,0.00
2022-09-28T01:16:11.985Z,0.00
2022-09-28T01:17:11.941Z,0.00
2022-09-28T01:18:11.922Z,0.00
2022-09-28T01:19:11.923Z,0.00
2022-09-28T01:20:11.901Z,0.00
2022-09-28T01:21:11.892Z,0.00
2022-09-28T01:22:11.883Z,0.00
2022-09-28T01:23:11.867Z,0.00
2022-09-28T01:24:11.875Z,0.00
2022-09-28T01:25:11.878Z,0.00
2022-09-28T01:26:11.844Z,0.00
2022-09-28T01:27:11.830Z,0.00
2022-09-28T01:28:11.823Z,0.00
2022-09-28T01:29:11.822Z,0.00
2022-09-28T01:30:11.798Z,0.00
2022-09-28T01:31:11.885Z,0.00
2022-09-28T01:32:11.781Z,0.00
2022-09-28T01:33:11.768Z,0.00
2022-09-28T01:34:11.770Z,0.00
2022-09-28T01:35:11.757Z,0.00
2022-09-28T01:36:11.737Z,0.00
2022-09-28T01:37:11.729Z,0.00
2022-09-28T01:38:11.719Z,0.00
2022-09-28T01:39:11.728Z,0.00
2022-09-28T01:40:11.712Z,0.00
2022-09-28T01:41:11.710Z,0.00
2022-09-28T01:42:11.678Z,0.00
2022-09-28T01:43:11.737Z,0.00
2022-09-28T01:44:11.676Z,0.00
2022-09-28T01:45:11.650Z,0.00
2022-09-28T01:46:11.717Z,0.00
2022-09-28T01:47:11.629Z,0.00
2022-09-28T01:48:11.625Z,0.00
2022-09-28T01:49:11.697Z,0.00
2022-09-28T01:50:11.678Z,0.00
2022-09-28T01:51:11.591Z,0.00
2022-09-28T01:52:11.576Z,0.00
2022-09-28T01:53:11.570Z,0.00
2022-09-28T01:54:11.574Z,0.00
2022-09-28T01:55:11.546Z,0.00
2022-09-28T01:56:11.571Z,0.00
2022-09-28T01:57:11.570Z,0.00
2022-09-28T01:58:11.523Z,0.00
2022-09-28T01:59:11.512Z,0.00
2022-09-28T02:00:11.581Z,0.00
2022-09-28T02:01:11.579Z,0.00
2022-09-28T02:02:11.559Z,0.00
2022-09-28T02:03:11.477Z,0.00
2022-09-28T02:04:11.467Z,0.00
2022-09-28T02:05:11.546Z,0.00
2022-09-28T02:06:11.479Z,0.00
2022-09-28T02:07:11.427Z,0.00
2022-09-28T02:08:11.425Z,0.00
2022-09-28T02:09:11.407Z,0.00
2022-09-28T02:10:11.409Z,0.00
2022-09-28T02:11:11.477Z,0.00
2022-09-28T02:12:11.379Z,0.00
2022-09-28T02:13:11.381Z,0.00
2022-09-28T02:14:11.350Z,0.00
2022-09-28T02:15:11.351Z,0.00
2022-09-28T02:16:11.384Z,0.00
2022-09-28T02:17:11.315Z,0.00
2022-09-28T02:18:11.309Z,0.00
2022-09-28T02:19:11.302Z,0.00
2022-09-28T02:20:11.300Z,0.00
2022-09-28T02:21:11.280Z,0.00
2022-09-28T02:22:11.272Z,0.00
2022-09-28T02:23:11.262Z,0.00
2022-09-28T02:24:11.262Z,0.00
2022-09-28T02:25:11.258Z,0.00
2022-09-28T02:26:11.244Z,0.00
2022-09-28T02:27:11.267Z,0.00
2022-09-28T02:28:11.255Z,0.00
2022-09-28T02:29:11.358Z,0.00
2022-09-28T02:30:11.204Z,0.00
2022-09-28T02:31:11.217Z,0.00
2022-09-28T02:32:11.172Z,0.00
2022-09-28T02:33:11.169Z,0.00
2022-09-28T02:34:11.192Z,0.00
2022-09-28T02:35:11.149Z,0.00
2022-09-28T02:36:11.129Z,0.00
2022-09-28T02:37:11.126Z,0.00
2022-09-28T02:38:11.113Z,0.00
2022-09-28T02:39:11.141Z,0.00
2022-09-28T02:40:11.088Z,0.00
2022-09-28T02:41:11.076Z,0.00
2022-09-28T02:42:11.071Z,0.00
2022-09-28T02:43:11.060Z,0.00
2022-09-28T02:44:11.065Z,0.00
2022-09-28T02:45:11.056Z,0.00
2022-09-28T02:46:11.127Z,0.00
2022-09-28T02:47:11.015Z,0.00
2022-09-28T02:48:11.022Z,0.00
2022-09-28T02:49:21.439Z,0.00
2022-09-28T02:50:11.979Z,0.00
2022-09-28T02:51:10.971Z,0.00
2022-09-28T02:52:10.959Z,0.00
2022-09-28T02:53:10.960Z,0.00
2022-09-28T02:54:13.418Z,0.00
2022-09-28T02:55:10.931Z,0.00
2022-09-28T02:56:10.916Z,0.00
2022-09-28T02:57:10.909Z,0.00
2022-09-28T02:58:10.896Z,0.00
2022-09-28T02:59:10.946Z,0.00
2022-09-28T03:00:10.899Z,0.00
2022-09-28T03:01:10.978Z,0.00
2022-09-28T03:02:10.951Z,0.00
2022-09-28T03:03:10.847Z,0.00
2022-09-28T03:04:10.843Z,0.00
2022-09-28T03:05:10.839Z,0.00
2022-09-28T03:06:10.819Z,0.00
2022-09-28T03:07:10.804Z,0.00
2022-09-28T03:08:10.794Z,0.00
2022-09-28T03:09:10.850Z,0.00
2022-09-28T03:10:10.792Z,0.00
2022-09-28T03:11:10.764Z,0.00
2022-09-28T03:12:10.757Z,0.00
2022-09-28T03:13:10.748Z,0.00
2022-09-28T03:14:10.735Z,0.00
2022-09-28T03:15:10.741Z,0.00
2022-09-28T03:16:10.764Z,0.00
2022-09-28T03:17:10.786Z,0.00
2022-09-28T03:18:10.697Z,0.00
2022-09-28T03:19:10.724Z,0.00
2022-09-28T03:20:10.687Z,0.00
2022-09-28T03:21:10.665Z,0.00
2022-09-28T03:22:10.651Z,0.00
2022-09-28T03:23:26.135Z,0.00
2022-09-28T03:24:11.632Z,0.00
2022-09-28T03:25:10.642Z,0.00
2022-09-28T03:26:10.612Z,0.00
2022-09-28T03:27:10.601Z,0.00
2022-09-28T03:28:10.592Z,0.00
2022-09-28T03:29:10.637Z,0.00
2022-09-28T03:30:10.585Z,0.00
2022-09-28T03:31:10.699Z,0.00
2022-09-28T03:32:10.572Z,0.00
2022-09-28T03:33:10.564Z,0.00
2022-09-28T03:34:10.529Z,0.00
2022-09-28T03:35:10.537Z,0.00
2022-09-28T03:36:10.512Z,0.00
2022-09-28T03:37:10.498Z,0.00
2022-09-28T03:38:10.488Z,0.00
2022-09-28T03:39:10.515Z,0.00
2022-09-28T03:40:10.494Z,0.00
2022-09-28T03:41:10.463Z,0.00
2022-09-28T03:42:10.452Z,0.00
2022-09-28T03:43:10.439Z,0.00
2022-09-28T03:44:10.436Z,0.00
2022-09-28T03:45:10.486Z,0.00
2022-09-28T03:46:10.518Z,0.00
2022-09-28T03:47:10.398Z,0.00
2022-09-28T03:48:10.412Z,0.00
2022-09-28T03:49:10.448Z,0.00
2022-09-28T03:50:10.769Z,0.00
2022-09-28T03:51:10.356Z,0.00
2022-09-28T03:52:10.348Z,0.00
2022-09-28T03:53:10.333Z,0.00
2022-09-28T03:54:10.343Z,0.00
2022-09-28T03:55:10.314Z,0.00
2022-09-28T03:56:10.313Z,0.00
2022-09-28T03:57:10.294Z,0.00
2022-09-28T03:58:10.285Z,0.00
2022-09-28T03:59:10.358Z,0.00
2022-09-28T04:00:10.338Z,0.00
2022-09-28T04:01:14.208Z,0.00
2022-09-28T04:02:11.294Z,0.00
2022-09-28T04:03:10.231Z,0.00
2022-09-28T04:04:10.241Z,0.00
2022-09-28T04:05:10.233Z,0.00
2022-09-28T04:06:10.206Z,0.00
2022-09-28T04:07:10.191Z,0.00
2022-09-28T04:08:10.189Z,0.00
2022-09-28T04:09:10.212Z,0.00
2022-09-28T04:10:10.161Z,0.00
2022-09-28T04:11:10.155Z,0.00
2022-09-28T04:12:10.162Z,0.00
2022-09-28T04:13:10.137Z,0.00
2022-09-28T04:14:10.143Z,0.00
2022-09-28T04:15:10.110Z,0.00
2022-09-28T04:16:10.132Z,0.00
2022-09-28T04:17:10.090Z,0.00
2022-09-28T04:18:10.076Z,0.00
2022-09-28T04:19:10.142Z,0.00
2022-09-28T04:20:10.056Z,0.00
2022-09-28T04:21:10.068Z,0.00
2022-09-28T04:22:10.036Z,0.00
2022-09-28T04:23:10.031Z,0.00
2022-09-28T04:24:10.036Z,0.00
2022-09-28T04:25:10.055Z,0.00
2022-09-28T04:26:09.992Z,0.00
2022-09-28T04:27:09.987Z,0.00
2022-09-28T04:28:09.972Z,0.00
2022-09-28T04:29:10.051Z,0.00
2022-09-28T04:30:09.955Z,0.00
2022-09-28T04:31:09.949Z,0.00
2022-09-28T04:32:09.932Z,0.00
2022-09-28T04:33:09.923Z,0.00
2022-09-28T04:34:09.914Z,0.00
2022-09-28T04:35:09.955Z,0.00
2022-09-28T04:36:09.891Z,0.00
2022-09-28T04:37:09.905Z,0.00
2022-09-28T04:38:09.872Z,0.00
2022-09-28T04:39:09.907Z,0.00
2022-09-28T04:40:09.867Z,0.00
2022-09-28T04:41:09.844Z,0.00
2022-09-28T04:42:09.833Z,0.00
2022-09-28T04:43:09.824Z,0.00
2022-09-28T04:44:09.812Z,0.00
2022-09-28T04:45:09.819Z,0.00
2022-09-28T04:46:09.882Z,0.00
2022-09-28T04:47:09.796Z,0.00
2022-09-28T04:48:09.769Z,0.00
2022-09-28T04:49:09.889Z,0.00
2022-09-28T04:50:09.769Z,0.00
2022-09-28T04:51:09.742Z,0.00
2022-09-28T04:52:11.675Z,0.00
2022-09-28T04:53:09.754Z,0.00
2022-09-28T04:54:09.705Z,0.00
2022-09-28T04:55:09.721Z,0.00
2022-09-28T04:56:09.683Z,0.00
2022-09-28T04:57:09.675Z,0.00
2022-09-28T04:58:09.666Z,0.00
2022-09-28T04:59:09.668Z,0.00
2022-09-28T05:00:09.658Z,0.00
2022-09-28T05:01:09.667Z,0.00
2022-09-28T05:02:09.695Z,0.00
2022-09-28T05:03:09.614Z,0.00
2022-09-28T05:04:09.607Z,0.00
2022-09-28T05:05:09.613Z,0.00
2022-09-28T05:06:09.581Z,0.00
2022-09-28T05:07:09.574Z,0.00
2022-09-28T05:08:09.562Z,0.00
2022-09-28T05:09:09.579Z,0.00
2022-09-28T05:10:09.560Z,0.00
2022-09-28T05:11:09.532Z,0.00
2022-09-28T05:12:09.526Z,0.00
2022-09-28T05:13:09.516Z,0.00
2022-09-28T05:14:09.520Z,0.00
2022-09-28T05:15:09.504Z,0.00
2022-09-28T05:16:09.551Z,0.00
2022-09-28T05:17:09.468Z,0.00
2022-09-28T05:18:09.462Z,0.00
2022-09-28T05:19:09.451Z,0.00
2022-09-28T05:20:09.445Z,0.00
2022-09-28T05:21:09.445Z,0.00
2022-09-28T05:22:09.419Z,0.00
2022-09-28T05:23:09.406Z,0.00
2022-09-28T05:24:09.399Z,0.00
2022-09-28T05:25:09.418Z,0.00
2022-09-28T05:26:09.404Z,0.00
2022-09-28T05:27:09.365Z,0.00
2022-09-28T05:28:09.353Z,0.00
2022-09-28T05:29:09.345Z,0.00
2022-09-28T05:30:09.340Z,0.00
2022-09-28T05:31:09.342Z,0.00
2022-09-28T05:32:09.361Z,0.00
2022-09-28T05:33:09.305Z,0.00
2022-09-28T05:34:09.291Z,0.00
2022-09-28T05:35:09.285Z,0.00
2022-09-28T05:36:09.290Z,0.00
2022-09-28T05:37:09.263Z,0.00
2022-09-28T05:38:09.250Z,0.00
2022-09-28T05:39:09.243Z,0.00
2022-09-28T05:40:09.231Z,5.62
2022-09-28T05:41:09.323Z,5.62
2022-09-28T05:42:09.215Z,5.62
2022-09-28T05:43:09.209Z,5.62
2022-09-28T05:44:09.190Z,5.62
2022-09-28T05:45:09.183Z,5.62
2022-09-28T05:46:09.256Z,5.62
2022-09-28T05:47:09.164Z,5.62
2022-09-28T05:48:09.151Z,5.62
2022-09-28T05:49:09.145Z,5.62
2022-09-28T05:50:09.140Z,5.62
2022-09-28T05:51:09.134Z,5.62
2022-09-28T05:52:09.107Z,11.25
2022-09-28T05:53:09.099Z,11.25
2022-09-28T05:54:09.085Z,11.25
2022-09-28T05:55:09.085Z,11.25
2022-09-28T05:56:09.083Z,11.25
2022-09-28T05:57:09.085Z,11.25
2022-09-28T05:58:09.050Z,11.25
2022-09-28T05:59:09.059Z,11.25
2022-09-28T06:00:09.029Z,11.25
2022-09-28T06:01:09.121Z,11.25
2022-09-28T06:02:09.070Z,16.88
2022-09-28T06:03:09.637Z,16.88
2022-09-28T06:04:08.984Z,16.88
2022-09-28T06:05:08.975Z,16.88
2022-09-28T06:06:08.983Z,16.88
2022-09-28T06:07:08.952Z,16.88
2022-09-28T06:08:08.942Z,16.88
2022-09-28T06:09:08.933Z,16.88
2022-09-28T06:10:08.921Z,16.88
2022-09-28T06:11:08.936Z,16.88
2022-09-28T06:12:08.903Z,16.88
2022-09-28T06:13:08.917Z,16.88
2022-09-28T06:14:08.881Z,16.88
2022-09-28T06:15:08.873Z,16.88
2022-09-28T06:16:08.939Z,22.50
2022-09-28T06:17:08.915Z,22.50
2022-09-28T06:18:08.839Z,22.50
2022-09-28T06:19:08.831Z,22.50
2022-09-28T06:20:08.817Z,22.50
2022-09-28T06:21:08.822Z,16.88
2022-09-28T06:22:08.798Z,16.88
2022-09-28T06:23:08.789Z,16.88
2022-09-28T06:24:08.777Z,16.88
2022-09-28T06:25:08.776Z,16.88
2022-09-28T06:26:08.777Z,16.88
2022-09-28T06:27:08.750Z,16.88
2022-09-28T06:28:08.737Z,16.88
2022-09-28T06:29:08.748Z,16.88
2022-09-28T06:30:08.730Z,16.88
2022-09-28T06:31:08.841Z,16.88
2022-09-28T06:32:08.692Z,22.50
2022-09-28T06:33:08.686Z,22.50
2022-09-28T06:34:08.687Z,22.50
2022-09-28T06:35:08.667Z,22.50
2022-09-28T06:36:08.677Z,22.50
2022-09-28T06:37:08.649Z,22.50
2022-09-28T06:38:08.641Z,22.50
2022-09-28T06:39:08.625Z,22.50
2022-09-28T06:40:08.610Z,22.50
2022-09-28T06:41:08.632Z,22.50
2022-09-28T06:42:08.590Z,22.50
2022-09-28T06:43:08.582Z,22.50
2022-09-28T06:44:08.572Z,22.50
2022-09-28T06:45:08.581Z,22.50
2022-09-28T06:46:08.632Z,22.50
2022-09-28T06:47:08.563Z,22.50
2022-09-28T06:48:08.535Z,28.12
2022-09-28T06:49:08.565Z,28.12
2022-09-28T06:50:08.525Z,28.12
2022-09-28T06:51:08.531Z,28.12
2022-09-28T06:52:08.495Z,28.12
2022-09-28T06:53:08.490Z,28.12
2022-09-28T06:54:08.471Z,28.12
2022-09-28T06:55:08.474Z,28.12
2022-09-28T06:56:08.457Z,28.12
2022-09-28T06:57:08.440Z,28.12
2022-09-28T06:58:08.426Z,28.12
2022-09-28T06:59:08.418Z,28.12
2022-09-28T07:00:08.419Z,28.12
2022-09-28T07:01:08.483Z,33.75
2022-09-28T07:02:08.454Z,39.38
2022-09-28T07:03:08.378Z,39.38
2022-09-28T07:04:08.365Z,39.38
2022-09-28T07:05:08.358Z,39.38
2022-09-28T07:06:08.367Z,45.00
2022-09-28T07:07:08.340Z,45.00
2022-09-28T07:08:08.330Z,45.00
2022-09-28T07:09:26.500Z,45.00
2022-09-28T07:10:09.301Z,45.00
2022-09-28T07:11:08.314Z,45.00
2022-09-28T07:12:08.291Z,45.00
2022-09-28T07:13:14.799Z,45.00
2022-09-28T07:14:11.418Z,45.00
2022-09-28T07:15:08.252Z,45.00
2022-09-28T07:16:08.288Z,45.00
2022-09-28T07:17:13.658Z,45.00
2022-09-28T07:18:09.291Z,45.00
2022-09-28T07:19:08.212Z,45.00
2022-09-28T07:20:18.167Z,45.00
2022-09-28T07:21:13.332Z,45.00
2022-09-28T07:22:09.179Z,50.62
2022-09-28T07:23:18.400Z,50.62
2022-09-28T07:24:09.161Z,50.62
2022-09-28T07:25:08.152Z,50.62
2022-09-28T07:26:09.314Z,50.62
2022-09-28T07:27:08.127Z,50.62
2022-09-28T07:28:08.123Z,50.62
2022-09-28T07:29:08.110Z,50.62
2022-09-28T07:30:08.093Z,50.62
2022-09-28T07:31:08.172Z,56.25
2022-09-28T07:32:08.077Z,56.25
2022-09-28T07:33:08.197Z,56.25
2022-09-28T07:34:08.053Z,56.25
2022-09-28T07:35:08.058Z,56.25
2022-09-28T07:36:08.047Z,56.25
2022-09-28T07:37:08.029Z,56.25
2022-09-28T07:38:08.017Z,56.25
2022-09-28T07:39:08.010Z,56.25
2022-09-28T07:40:07.993Z,56.25
2022-09-28T07:41:08.145Z,56.25
2022-09-28T07:42:07.978Z,61.88
2022-09-28T07:43:07.975Z,61.88
2022-09-28T07:44:08.014Z,61.88
2022-09-28T07:45:07.945Z,61.88
2022-09-28T07:46:08.003Z,61.88
2022-09-28T07:47:07.923Z,61.88
2022-09-28T07:48:07.972Z,61.88
2022-09-28T07:49:11.347Z,61.88
2022-09-28T07:50:07.895Z,61.88
2022-09-28T07:51:07.898Z,61.88
2022-09-28T07:52:07.872Z,61.88
2022-09-28T07:53:07.859Z,61.88
2022-09-28T07:54:07.853Z,61.88
2022-09-28T07:55:07.854Z,61.88
2022-09-28T07:56:07.848Z,61.88
2022-09-28T07:57:07.823Z,61.88
2022-09-28T07:58:07.808Z,67.50
2022-09-28T07:59:07.813Z,67.50
2022-09-28T08:00:07.789Z,61.88
2022-09-28T08:01:07.863Z,61.88
2022-09-28T08:02:07.829Z,61.88
2022-09-28T08:03:07.761Z,61.88
2022-09-28T08:04:07.806Z,61.88
2022-09-28T08:05:07.854Z,61.88
2022-09-28T08:06:07.750Z,56.25
2022-09-28T08:07:07.722Z,56.25
2022-09-28T08:08:07.707Z,56.25
2022-09-28T08:09:07.715Z,61.88
2022-09-28T08:10:07.724Z,61.88
2022-09-28T08:11:07.699Z,61.88
2022-09-28T08:12:07.668Z,61.88
2022-09-28T08:13:08.777Z,56.25
2022-09-28T08:14:07.657Z,56.25
2022-09-28T08:15:07.702Z,56.25
2022-09-28T08:16:07.640Z,56.25
2022-09-28T08:17:07.616Z,61.88
2022-09-28T08:18:07.607Z,61.88
2022-09-28T08:19:07.596Z,61.88
2022-09-28T08:20:07.598Z,61.88
2022-09-28T08:21:07.614Z,61.88
2022-09-28T08:22:07.564Z,61.88
2022-09-28T08:23:07.555Z,67.50
2022-09-28T08:24:07.551Z,67.50
2022-09-28T08:25:07.539Z,67.50
2022-09-28T08:26:09.318Z,73.12
2022-09-28T08:27:07.522Z,73.12
2022-09-28T08:28:07.506Z,67.50
2022-09-28T08:29:07.562Z,78.75
2022-09-28T08:30:07.489Z,78.75
2022-09-28T08:31:07.571Z,78.75
2022-09-28T08:32:07.463Z,78.75
2022-09-28T08:33:07.464Z,73.12
2022-09-28T08:34:07.449Z,67.50
2022-09-28T08:35:07.446Z,67.50
2022-09-28T08:36:07.435Z,73.12
2022-09-28T08:37:07.435Z,73.12
2022-09-28T08:38:07.408Z,73.12
2022-09-28T08:39:07.393Z,73.12
2022-09-28T08:40:07.384Z,73.12
2022-09-28T08:41:07.388Z,73.12
2022-09-28T08:42:07.363Z,73.12
2022-09-28T08:43:07.351Z,73.12
2022-09-28T08:44:07.345Z,73.12
2022-09-28T08:45:07.334Z,78.75
2022-09-28T08:46:07.448Z,84.38
2022-09-28T08:47:07.310Z,84.38
2022-09-28T08:48:07.302Z,84.38
2022-09-28T08:49:24.163Z,84.38
2022-09-28T08:50:08.290Z,90.00
2022-09-28T08:51:07.274Z,90.00
2022-09-28T08:52:07.277Z,90.00
2022-09-28T08:53:07.275Z,84.38
2022-09-28T08:54:09.597Z,84.38
2022-09-28T08:55:07.239Z,84.38
2022-09-28T08:56:07.230Z,84.38
2022-09-28T08:57:07.251Z,90.00
2022-09-28T08:58:07.215Z,90.00
2022-09-28T08:59:07.340Z,90.00
2022-09-28T09:00:11.572Z,78.75
2022-09-28T09:01:07.281Z,73.12
2022-09-28T09:02:07.238Z,78.75
2022-09-28T09:03:07.152Z,90.00
2022-09-28T09:04:07.145Z,90.00
2022-09-28T09:05:07.135Z,90.00
2022-09-28T09:06:07.126Z,90.00
2022-09-28T09:07:07.131Z,90.00
2022-09-28T09:08:07.102Z,90.00
2022-09-28T09:09:07.111Z,95.62
2022-09-28T09:10:07.076Z,106.88
2022-09-28T09:11:07.082Z,118.12
2022-09-28T09:12:07.061Z,129.38
2022-09-28T09:13:07.046Z,106.88
2022-09-28T09:14:07.044Z,106.88
2022-09-28T09:15:07.024Z,95.62
2022-09-28T09:16:07.049Z,95.62
2022-09-28T09:17:07.057Z,95.62
2022-09-28T09:18:06.996Z,95.62
2022-09-28T09:19:06.983Z,95.62
2022-09-28T09:20:06.975Z,101.25
2022-09-28T09:21:06.961Z,95.62
2022-09-28T09:22:06.967Z,90.00
2022-09-28T09:23:06.941Z,90.00
2022-09-28T09:24:06.936Z,84.38
2022-09-28T09:25:06.948Z,78.75
2022-09-28T09:26:06.922Z,73.12
2022-09-28T09:27:06.914Z,73.12
2022-09-28T09:28:06.894Z,73.12
2022-09-28T09:29:06.883Z,78.75
2022-09-28T09:30:06.876Z,84.38
2022-09-28T09:31:06.911Z,90.00
2022-09-28T09:32:06.874Z,101.25
2022-09-28T09:33:06.837Z,101.25
2022-09-28T09:34:06.833Z,101.25
2022-09-28T09:35:06.817Z,106.88
2022-09-28T09:36:06.814Z,106.88
2022-09-28T09:37:06.812Z,129.38
2022-09-28T09:38:06.843Z,146.25
2022-09-28T09:39:06.775Z,101.25
2022-09-28T09:40:06.778Z,106.88
2022-09-28T09:41:06.951Z,123.75
2022-09-28T09:42:06.762Z,67.50
2022-09-28T09:43:06.734Z,50.62
2022-09-28T09:44:06.727Z,45.00
2022-09-28T09:45:06.724Z,39.38
2022-09-28T09:46:06.765Z,33.75
2022-09-28T09:47:06.707Z,28.12
2022-09-28T09:48:06.683Z,28.12
2022-09-28T09:49:06.675Z,39.38
2022-09-28T09:50:08.352Z,45.00
2022-09-28T09:51:06.654Z,45.00
2022-09-28T09:52:06.667Z,45.00
2022-09-28T09:53:06.631Z,50.62
2022-09-28T09:54:06.623Z,45.00
2022-09-28T09:55:06.610Z,39.38
2022-09-28T09:56:06.599Z,39.38
2022-09-28T09:57:06.628Z,50.62
2022-09-28T09:58:06.578Z,56.25
2022-09-28T09:59:06.572Z,67.50
2022-09-28T10:00:06.561Z,73.12
2022-09-28T10:01:06.615Z,78.75
2022-09-28T10:02:09.852Z,78.75
2022-09-28T10:03:07.534Z,78.75
2022-09-28T10:04:06.521Z,78.75
2022-09-28T10:05:06.509Z,78.75
2022-09-28T10:06:06.500Z,129.38
2022-09-28T10:07:06.498Z,140.62
2022-09-28T10:08:06.476Z,140.62
2022-09-28T10:09:06.467Z,140.62
2022-09-28T10:10:06.459Z,146.25
2022-09-28T10:11:06.445Z,151.88
2022-09-28T10:12:06.450Z,157.50
2022-09-28T10:13:06.454Z,157.50
2022-09-28T10:14:06.412Z,157.50
2022-09-28T10:15:06.404Z,106.88
2022-09-28T10:16:06.392Z,112.50
2022-09-28T10:17:06.476Z,95.62
2022-09-28T10:18:06.375Z,84.38
2022-09-28T10:19:06.365Z,78.75
2022-09-28T10:20:06.359Z,73.12
2022-09-28T10:21:06.355Z,73.12
2022-09-28T10:22:06.357Z,67.50
2022-09-28T10:23:06.321Z,67.50
2022-09-28T10:24:06.308Z,61.88
2022-09-28T10:25:06.309Z,61.88
2022-09-28T10:26:06.288Z,61.88
2022-09-28T10:27:06.294Z,61.88
2022-09-28T10:28:06.284Z,61.88
2022-09-28T10:29:06.279Z,61.88
2022-09-28T10:30:06.328Z,61.88
2022-09-28T10:31:06.344Z,61.88
2022-09-28T10:32:06.241Z,61.88
2022-09-28T10:33:06.217Z,61.88
2022-09-28T10:34:06.210Z,67.50
2022-09-28T10:35:06.296Z,67.50
2022-09-28T10:36:06.182Z,67.50
2022-09-28T10:37:06.187Z,67.50
2022-09-28T10:38:06.166Z,73.12
2022-09-28T10:39:06.153Z,73.12
2022-09-28T10:40:06.213Z,78.75
2022-09-28T10:41:06.161Z,78.75
2022-09-28T10:42:06.142Z,84.38
2022-09-28T10:43:06.110Z,84.38
2022-09-28T10:44:06.355Z,84.38
2022-09-28T10:45:06.118Z,90.00
2022-09-28T10:46:06.185Z,95.62
2022-09-28T10:47:06.072Z,95.62
2022-09-28T10:48:06.071Z,101.25
2022-09-28T10:49:06.051Z,101.25
2022-09-28T10:50:06.077Z,101.25
2022-09-28T10:51:06.029Z,101.25
2022-09-28T10:52:06.020Z,101.25
2022-09-28T10:53:06.023Z,101.25
2022-09-28T10:54:05.998Z,106.88
2022-09-28T10:55:05.984Z,106.88
2022-09-28T10:56:05.973Z,106.88
2022-09-28T10:57:09.200Z,106.88
2022-09-28T10:58:06.968Z,101.25
2022-09-28T10:59:05.946Z,90.00
2022-09-28T11:00:06.028Z,90.00
2022-09-28T11:01:06.004Z,90.00
2022-09-28T11:02:05.967Z,90.00
2022-09-28T11:03:05.918Z,90.00
2022-09-28T11:04:05.891Z,90.00
2022-09-28T11:05:06.003Z,95.62
2022-09-28T11:06:05.872Z,95.62
2022-09-28T11:07:05.858Z,95.62
2022-09-28T11:08:05.889Z,95.62
2022-09-28T11:09:05.843Z,95.62
2022-09-28T11:10:05.929Z,95.62
2022-09-28T11:11:05.822Z,95.62
2022-09-28T11:12:05.811Z,95.62
2022-09-28T11:13:05.826Z,95.62
2022-09-28T11:14:05.791Z,90.00
2022-09-28T11:15:05.778Z,90.00
2022-09-28T11:16:05.773Z,84.38
2022-09-28T11:17:05.817Z,84.38
2022-09-28T11:18:05.757Z,84.38
2022-09-28T11:19:05.919Z,84.38
2022-09-28T11:20:05.797Z,90.00
2022-09-28T11:21:06.075Z,78.75
2022-09-28T11:22:05.725Z,78.75
2022-09-28T11:23:05.696Z,78.75
2022-09-28T11:24:05.691Z,84.38
2022-09-28T11:25:05.677Z,84.38
2022-09-28T11:26:05.663Z,84.38
2022-09-28T11:27:05.666Z,90.00
2022-09-28T11:28:05.646Z,90.00
2022-09-28T11:29:05.633Z,90.00
2022-09-28T11:30:05.656Z,90.00
2022-09-28T11:31:05.651Z,95.62
2022-09-28T11:32:05.618Z,90.00
2022-09-28T11:33:05.750Z,90.00
2022-09-28T11:34:05.605Z,90.00
2022-09-28T11:35:05.569Z,90.00
2022-09-28T11:36:05.599Z,90.00
2022-09-28T11:37:05.548Z,90.00
2022-09-28T11:38:05.559Z,90.00
2022-09-28T11:39:05.527Z,90.00
2022-09-28T11:40:05.581Z,90.00
2022-09-28T11:41:05.506Z,90.00
2022-09-28T11:42:05.495Z,90.00
2022-09-28T11:44:05.479Z,84.38
2022-09-28T11:45:05.464Z,84.38
2022-09-28T11:46:05.520Z,84.38
2022-09-28T11:47:05.443Z,78.75
2022-09-28T11:48:05.449Z,78.75
2022-09-28T11:49:05.445Z,78.75
2022-09-28T11:50:05.417Z,78.75
2022-09-28T11:51:05.404Z,78.75
2022-09-28T11:52:05.397Z,78.75
2022-09-28T11:53:05.408Z,78.75
2022-09-28T11:54:05.373Z,84.38
2022-09-28T11:55:05.367Z,84.38
2022-09-28T11:56:08.674Z,84.38
2022-09-28T11:57:05.342Z,78.75
2022-09-28T11:58:05.352Z,78.75
2022-09-28T11:59:05.319Z,73.12
2022-09-28T12:00:05.310Z,73.12
2022-09-28T12:01:05.299Z,67.50
2022-09-28T12:02:05.452Z,67.50
2022-09-28T12:03:05.508Z,73.12
2022-09-28T12:04:05.285Z,73.12
2022-09-28T12:05:05.283Z,73.12
2022-09-28T12:06:05.275Z,73.12
2022-09-28T12:07:05.326Z,73.12
2022-09-28T12:08:05.256Z,73.12
2022-09-28T12:09:05.224Z,73.12
2022-09-28T12:10:05.342Z,73.12
2022-09-28T12:11:05.193Z,73.12
2022-09-28T12:12:05.200Z,73.12
2022-09-28T12:13:05.200Z,73.12
2022-09-28T12:14:05.165Z,73.12
2022-09-28T12:15:05.152Z,67.50
2022-09-28T12:16:27.588Z,67.50
2022-09-28T12:17:07.942Z,67.50
2022-09-28T12:18:05.343Z,61.88
2022-09-28T12:19:05.110Z,61.88
2022-09-28T12:20:05.108Z,67.50
2022-09-28T12:21:05.385Z,67.50
2022-09-28T12:22:05.081Z,67.50
2022-09-28T12:23:05.091Z,73.12
2022-09-28T12:24:05.071Z,73.12
2022-09-28T12:25:05.056Z,73.12
2022-09-28T12:26:05.039Z,73.12
2022-09-28T12:27:05.029Z,73.12
2022-09-28T12:28:05.039Z,73.12
2022-09-28T12:29:05.011Z,73.12
2022-09-28T12:30:05.000Z,73.12
2022-09-28T12:31:05.051Z,73.12
2022-09-28T12:32:04.986Z,78.75
2022-09-28T12:33:04.979Z,84.38
2022-09-28T12:34:04.960Z,151.88
2022-09-28T12:35:04.948Z,118.12
2022-09-28T12:36:05.063Z,129.38
2022-09-28T12:37:04.948Z,78.75
2022-09-28T12:38:04.931Z,73.12
2022-09-28T12:40:06.657Z,73.12
2022-09-28T12:41:04.965Z,67.50
2022-09-28T12:42:04.882Z,67.50
2022-09-28T12:43:04.881Z,61.88
2022-09-28T12:44:04.859Z,61.88
2022-09-28T12:45:04.841Z,61.88
2022-09-28T12:46:11.853Z,61.88
2022-09-28T12:47:05.868Z,61.88
2022-09-28T12:48:04.828Z,61.88
2022-09-28T12:49:51.583Z,61.88
2022-09-28T12:50:37.996Z,61.88
2022-09-28T12:51:05.781Z,61.88
2022-09-28T12:52:04.767Z,67.50
2022-09-28T12:53:04.808Z,73.12
2022-09-28T12:54:04.772Z,78.75
2022-09-28T12:55:04.792Z,84.38
2022-09-28T12:56:04.795Z,90.00
2022-09-28T12:57:04.834Z,95.62
2022-09-28T12:58:05.354Z,95.62
2022-09-28T12:59:04.707Z,95.62
2022-09-28T13:00:04.688Z,101.25
2022-09-28T13:01:04.819Z,106.88
2022-09-28T13:02:04.759Z,106.88
2022-09-28T13:03:04.670Z,106.88
2022-09-28T13:04:04.650Z,135.00